sensor_id;sensor_type;location;lat;lon;timestamp;P1;durP1;ratioP1;P2;durP2;ratioP2
11338;SDS011;5724;42.684;23.252;2023-05-07T00:00:32;7.05;;;6.55;;
11338;SDS011;5724;42.684;23.252;2023-05-07T00:02:58;7.43;;;6.88;;
11338;SDS011;5724;42.684;23.252;2023-05-07T00:05:24;7.20;;;6.70;;
11338;SDS011;5724;42.684;23.252;2023-05-07T00:07:49;7.50;;;7.00;;
11338;SDS011;5724;42.684;23.252;2023-05-07T00:10:15;7.75;;;6.95;;
11338;SDS011;5724;42.684;23.252;2023-05-07T00:12:40;7.45;;;6.85;;
11338;SDS011;5724;42.684;23.252;2023-05-07T00:15:06;7.63;;;7.13;;
11338;SDS011;5724;42.684;23.252;2023-05-07T00:17:32;7.53;;;6.93;;
11338;SDS011;5724;42.684;23.252;2023-05-07T00:19:58;8.23;;;7.05;;
11338;SDS011;5724;42.684;23.252;2023-05-07T00:22:23;8.63;;;7.82;;
11338;SDS011;5724;42.684;23.252;2023-05-07T00:24:48;20.63;;;18.67;;
11338;SDS011;5724;42.684;23.252;2023-05-07T00:27:14;12.65;;;11.45;;
11338;SDS011;5724;42.684;23.252;2023-05-07T00:29:40;8.95;;;8.30;;
11338;SDS011;5724;42.684;23.252;2023-05-07T00:32:05;7.82;;;7.25;;
11338;SDS011;5724;42.684;23.252;2023-05-07T00:34:31;12.77;;;7.95;;
11338;SDS011;5724;42.684;23.252;2023-05-07T00:36:56;8.60;;;7.72;;
11338;SDS011;5724;42.684;23.252;2023-05-07T00:39:22;8.70;;;8.00;;
11338;SDS011;5724;42.684;23.252;2023-05-07T00:41:47;8.25;;;7.68;;
11338;SDS011;5724;42.684;23.252;2023-05-07T00:44:13;8.05;;;7.55;;
11338;SDS011;5724;42.684;23.252;2023-05-07T00:46:39;8.13;;;7.43;;
11338;SDS011;5724;42.684;23.252;2023-05-07T00:49:05;8.50;;;7.85;;
11338;SDS011;5724;42.684;23.252;2023-05-07T00:51:31;8.82;;;8.18;;
11338;SDS011;5724;42.684;23.252;2023-05-07T00:53:59;8.88;;;8.00;;
11338;SDS011;5724;42.684;23.252;2023-05-07T00:56:26;7.45;;;6.95;;
11338;SDS011;5724;42.684;23.252;2023-05-07T00:58:51;7.60;;;7.22;;
11338;SDS011;5724;42.684;23.252;2023-05-07T01:01:17;8.13;;;7.35;;
11338;SDS011;5724;42.684;23.252;2023-05-07T01:03:43;8.25;;;7.57;;
11338;SDS011;5724;42.684;23.252;2023-05-07T01:06:08;8.85;;;8.15;;
11338;SDS011;5724;42.684;23.252;2023-05-07T01:08:37;9.05;;;8.30;;
11338;SDS011;5724;42.684;23.252;2023-05-07T01:11:05;8.15;;;7.55;;
11338;SDS011;5724;42.684;23.252;2023-05-07T01:13:32;8.70;;;7.97;;
11338;SDS011;5724;42.684;23.252;2023-05-07T01:16:00;8.43;;;7.72;;
11338;SDS011;5724;42.684;23.252;2023-05-07T01:18:25;7.75;;;7.25;;
11338;SDS011;5724;42.684;23.252;2023-05-07T01:20:51;9.48;;;8.52;;
11338;SDS011;5724;42.684;23.252;2023-05-07T01:23:17;8.75;;;8.10;;
11338;SDS011;5724;42.684;23.252;2023-05-07T01:25:50;8.93;;;8.32;;
11338;SDS011;5724;42.684;23.252;2023-05-07T01:28:16;9.05;;;7.97;;
11338;SDS011;5724;42.684;23.252;2023-05-07T01:30:41;8.80;;;8.00;;
11338;SDS011;5724;42.684;23.252;2023-05-07T01:33:13;11.40;;;8.55;;
11338;SDS011;5724;42.684;23.252;2023-05-07T01:35:41;8.57;;;7.93;;
11338;SDS011;5724;42.684;23.252;2023-05-07T01:38:10;8.40;;;7.60;;
11338;SDS011;5724;42.684;23.252;2023-05-07T01:40:37;8.63;;;8.13;;
11338;SDS011;5724;42.684;23.252;2023-05-07T01:43:03;8.43;;;7.82;;
11338;SDS011;5724;42.684;23.252;2023-05-07T01:45:29;8.68;;;7.95;;
11338;SDS011;5724;42.684;23.252;2023-05-07T01:47:56;8.60;;;7.47;;
11338;SDS011;5724;42.684;23.252;2023-05-07T01:50:22;8.02;;;7.43;;
11338;SDS011;5724;42.684;23.252;2023-05-07T01:52:50;8.32;;;7.82;;
11338;SDS011;5724;42.684;23.252;2023-05-07T01:55:15;9.38;;;8.57;;
11338;SDS011;5724;42.684;23.252;2023-05-07T01:57:41;8.98;;;8.32;;
11338;SDS011;5724;42.684;23.252;2023-05-07T02:00:07;10.13;;;9.18;;
11338;SDS011;5724;42.684;23.252;2023-05-07T02:02:34;14.88;;;9.10;;
11338;SDS011;5724;42.684;23.252;2023-05-07T02:05:00;9.88;;;9.10;;
11338;SDS011;5724;42.684;23.252;2023-05-07T02:07:28;9.88;;;8.50;;
11338;SDS011;5724;42.684;23.252;2023-05-07T02:09:54;9.73;;;9.00;;
11338;SDS011;5724;42.684;23.252;2023-05-07T02:12:20;9.60;;;8.63;;
11338;SDS011;5724;42.684;23.252;2023-05-07T02:14:46;8.73;;;8.10;;
11338;SDS011;5724;42.684;23.252;2023-05-07T02:17:12;9.35;;;8.52;;
11338;SDS011;5724;42.684;23.252;2023-05-07T02:19:37;9.57;;;8.85;;
11338;SDS011;5724;42.684;23.252;2023-05-07T02:22:03;10.93;;;9.68;;
11338;SDS011;5724;42.684;23.252;2023-05-07T02:24:28;11.35;;;9.50;;
11338;SDS011;5724;42.684;23.252;2023-05-07T02:26:54;10.93;;;9.88;;
11338;SDS011;5724;42.684;23.252;2023-05-07T02:29:19;10.43;;;9.48;;
11338;SDS011;5724;42.684;23.252;2023-05-07T02:31:45;10.52;;;9.60;;
11338;SDS011;5724;42.684;23.252;2023-05-07T02:34:10;10.90;;;10.10;;
11338;SDS011;5724;42.684;23.252;2023-05-07T02:36:36;11.05;;;9.95;;
11338;SDS011;5724;42.684;23.252;2023-05-07T02:39:01;11.27;;;10.30;;
11338;SDS011;5724;42.684;23.252;2023-05-07T02:41:27;11.43;;;10.40;;
11338;SDS011;5724;42.684;23.252;2023-05-07T02:43:53;11.50;;;10.47;;
11338;SDS011;5724;42.684;23.252;2023-05-07T02:46:18;11.38;;;10.48;;
11338;SDS011;5724;42.684;23.252;2023-05-07T02:48:44;11.50;;;10.60;;
11338;SDS011;5724;42.684;23.252;2023-05-07T02:51:10;12.33;;;11.37;;
11338;SDS011;5724;42.684;23.252;2023-05-07T02:53:35;12.37;;;11.33;;
11338;SDS011;5724;42.684;23.252;2023-05-07T02:56:01;12.80;;;11.57;;
11338;SDS011;5724;42.684;23.252;2023-05-07T02:58:27;12.27;;;11.27;;
11338;SDS011;5724;42.684;23.252;2023-05-07T03:00:53;12.50;;;11.30;;
11338;SDS011;5724;42.684;23.252;2023-05-07T03:03:19;12.70;;;11.50;;
11338;SDS011;5724;42.684;23.252;2023-05-07T03:05:45;10.53;;;9.83;;
11338;SDS011;5724;42.684;23.252;2023-05-07T03:08:11;12.30;;;11.23;;
11338;SDS011;5724;42.684;23.252;2023-05-07T03:10:37;11.57;;;10.70;;
11338;SDS011;5724;42.684;23.252;2023-05-07T03:13:02;11.63;;;10.80;;
11338;SDS011;5724;42.684;23.252;2023-05-07T03:15:28;11.00;;;9.87;;
11338;SDS011;5724;42.684;23.252;2023-05-07T03:17:53;11.27;;;10.23;;
11338;SDS011;5724;42.684;23.252;2023-05-07T03:20:19;11.57;;;10.57;;
11338;SDS011;5724;42.684;23.252;2023-05-07T03:22:45;12.00;;;10.87;;
11338;SDS011;5724;42.684;23.252;2023-05-07T03:25:10;11.67;;;10.60;;
11338;SDS011;5724;42.684;23.252;2023-05-07T03:27:36;11.20;;;10.23;;
11338;SDS011;5724;42.684;23.252;2023-05-07T03:30:02;11.68;;;10.77;;
11338;SDS011;5724;42.684;23.252;2023-05-07T03:32:28;11.05;;;10.15;;
11338;SDS011;5724;42.684;23.252;2023-05-07T03:34:53;11.77;;;10.67;;
11338;SDS011;5724;42.684;23.252;2023-05-07T03:37:18;10.93;;;10.07;;
11338;SDS011;5724;42.684;23.252;2023-05-07T03:39:44;11.20;;;10.10;;
11338;SDS011;5724;42.684;23.252;2023-05-07T03:42:10;11.40;;;10.60;;
11338;SDS011;5724;42.684;23.252;2023-05-07T03:44:35;11.23;;;10.27;;
11338;SDS011;5724;42.684;23.252;2023-05-07T03:47:01;10.80;;;10.05;;
11338;SDS011;5724;42.684;23.252;2023-05-07T03:49:27;10.40;;;9.75;;
11338;SDS011;5724;42.684;23.252;2023-05-07T03:51:53;10.67;;;9.87;;
11338;SDS011;5724;42.684;23.252;2023-05-07T03:54:18;11.05;;;10.20;;
11338;SDS011;5724;42.684;23.252;2023-05-07T03:56:43;11.23;;;10.30;;
11338;SDS011;5724;42.684;23.252;2023-05-07T03:59:09;12.07;;;11.18;;
11338;SDS011;5724;42.684;23.252;2023-05-07T04:01:34;11.00;;;10.18;;
11338;SDS011;5724;42.684;23.252;2023-05-07T04:04:00;11.07;;;10.13;;
11338;SDS011;5724;42.684;23.252;2023-05-07T04:06:25;10.98;;;9.98;;
11338;SDS011;5724;42.684;23.252;2023-05-07T04:08:50;10.90;;;10.02;;
11338;SDS011;5724;42.684;23.252;2023-05-07T04:11:16;10.55;;;9.50;;
11338;SDS011;5724;42.684;23.252;2023-05-07T04:13:42;11.10;;;10.10;;
11338;SDS011;5724;42.684;23.252;2023-05-07T04:16:07;10.25;;;9.35;;
11338;SDS011;5724;42.684;23.252;2023-05-07T04:18:33;9.80;;;8.95;;
11338;SDS011;5724;42.684;23.252;2023-05-07T04:20:58;10.48;;;9.60;;
11338;SDS011;5724;42.684;23.252;2023-05-07T04:23:24;10.25;;;9.35;;
11338;SDS011;5724;42.684;23.252;2023-05-07T04:25:50;9.05;;;8.52;;
11338;SDS011;5724;42.684;23.252;2023-05-07T04:28:15;9.00;;;8.40;;
11338;SDS011;5724;42.684;23.252;2023-05-07T04:30:41;9.27;;;8.57;;
11338;SDS011;5724;42.684;23.252;2023-05-07T04:33:07;9.32;;;8.73;;
11338;SDS011;5724;42.684;23.252;2023-05-07T04:35:32;9.90;;;9.20;;
11338;SDS011;5724;42.684;23.252;2023-05-07T04:37:58;10.23;;;9.27;;
11338;SDS011;5724;42.684;23.252;2023-05-07T04:40:23;10.30;;;9.23;;
11338;SDS011;5724;42.684;23.252;2023-05-07T04:42:49;9.80;;;8.90;;
11338;SDS011;5724;42.684;23.252;2023-05-07T04:45:14;10.18;;;9.25;;
11338;SDS011;5724;42.684;23.252;2023-05-07T04:47:40;10.90;;;9.70;;
11338;SDS011;5724;42.684;23.252;2023-05-07T04:50:06;9.77;;;8.82;;
11338;SDS011;5724;42.684;23.252;2023-05-07T04:52:33;10.20;;;9.35;;
11338;SDS011;5724;42.684;23.252;2023-05-07T04:54:59;9.95;;;9.15;;
11338;SDS011;5724;42.684;23.252;2023-05-07T04:57:25;9.93;;;9.32;;
11338;SDS011;5724;42.684;23.252;2023-05-07T04:59:51;10.30;;;9.65;;
11338;SDS011;5724;42.684;23.252;2023-05-07T05:02:17;10.30;;;9.40;;
11338;SDS011;5724;42.684;23.252;2023-05-07T05:04:42;9.98;;;9.13;;
11338;SDS011;5724;42.684;23.252;2023-05-07T05:07:08;10.65;;;9.75;;
11338;SDS011;5724;42.684;23.252;2023-05-07T05:09:33;10.50;;;9.60;;
11338;SDS011;5724;42.684;23.252;2023-05-07T05:11:58;10.43;;;9.65;;
11338;SDS011;5724;42.684;23.252;2023-05-07T05:14:24;10.23;;;9.63;;
11338;SDS011;5724;42.684;23.252;2023-05-07T05:16:50;10.73;;;9.70;;
11338;SDS011;5724;42.684;23.252;2023-05-07T05:19:15;10.52;;;9.50;;
11338;SDS011;5724;42.684;23.252;2023-05-07T05:21:41;10.93;;;9.82;;
11338;SDS011;5724;42.684;23.252;2023-05-07T05:24:07;11.50;;;9.05;;
11338;SDS011;5724;42.684;23.252;2023-05-07T05:26:32;10.70;;;9.82;;
11338;SDS011;5724;42.684;23.252;2023-05-07T05:28:58;9.60;;;8.98;;
11338;SDS011;5724;42.684;23.252;2023-05-07T05:31:24;10.75;;;9.55;;
11338;SDS011;5724;42.684;23.252;2023-05-07T05:33:49;9.95;;;9.25;;
11338;SDS011;5724;42.684;23.252;2023-05-07T05:36:15;9.93;;;9.20;;
11338;SDS011;5724;42.684;23.252;2023-05-07T05:38:40;10.45;;;9.63;;
11338;SDS011;5724;42.684;23.252;2023-05-07T05:41:06;10.63;;;9.85;;
11338;SDS011;5724;42.684;23.252;2023-05-07T05:43:31;10.77;;;9.88;;
11338;SDS011;5724;42.684;23.252;2023-05-07T05:45:56;9.60;;;9.00;;
11338;SDS011;5724;42.684;23.252;2023-05-07T05:48:22;10.60;;;9.77;;
11338;SDS011;5724;42.684;23.252;2023-05-07T05:50:48;10.52;;;9.73;;
11338;SDS011;5724;42.684;23.252;2023-05-07T05:53:13;9.43;;;8.82;;
11338;SDS011;5724;42.684;23.252;2023-05-07T05:55:39;10.38;;;9.68;;
11338;SDS011;5724;42.684;23.252;2023-05-07T05:58:04;10.70;;;9.70;;
11338;SDS011;5724;42.684;23.252;2023-05-07T06:00:31;10.70;;;9.68;;
11338;SDS011;5724;42.684;23.252;2023-05-07T06:02:56;10.38;;;9.40;;
11338;SDS011;5724;42.684;23.252;2023-05-07T06:05:22;9.60;;;8.90;;
11338;SDS011;5724;42.684;23.252;2023-05-07T06:07:48;9.82;;;9.13;;
11338;SDS011;5724;42.684;23.252;2023-05-07T06:10:13;9.65;;;8.80;;
11338;SDS011;5724;42.684;23.252;2023-05-07T06:12:39;10.15;;;9.35;;
11338;SDS011;5724;42.684;23.252;2023-05-07T06:15:04;9.90;;;9.23;;
11338;SDS011;5724;42.684;23.252;2023-05-07T06:17:30;9.52;;;8.73;;
11338;SDS011;5724;42.684;23.252;2023-05-07T06:19:56;8.82;;;8.23;;
11338;SDS011;5724;42.684;23.252;2023-05-07T06:22:21;8.80;;;8.20;;
11338;SDS011;5724;42.684;23.252;2023-05-07T06:24:47;8.38;;;7.82;;
11338;SDS011;5724;42.684;23.252;2023-05-07T06:27:12;9.13;;;8.40;;
11338;SDS011;5724;42.684;23.252;2023-05-07T06:29:38;9.30;;;8.52;;
11338;SDS011;5724;42.684;23.252;2023-05-07T06:32:07;8.55;;;7.85;;
11338;SDS011;5724;42.684;23.252;2023-05-07T06:34:36;9.52;;;8.85;;
11338;SDS011;5724;42.684;23.252;2023-05-07T06:37:02;9.18;;;8.57;;
11338;SDS011;5724;42.684;23.252;2023-05-07T06:39:28;12.82;;;11.65;;
11338;SDS011;5724;42.684;23.252;2023-05-07T06:41:53;9.88;;;9.23;;
11338;SDS011;5724;42.684;23.252;2023-05-07T06:44:18;7.90;;;7.30;;
11338;SDS011;5724;42.684;23.252;2023-05-07T06:46:44;9.15;;;8.32;;
11338;SDS011;5724;42.684;23.252;2023-05-07T06:49:10;9.48;;;8.60;;
11338;SDS011;5724;42.684;23.252;2023-05-07T06:51:36;12.02;;;10.05;;
11338;SDS011;5724;42.684;23.252;2023-05-07T06:54:01;8.27;;;7.68;;
11338;SDS011;5724;42.684;23.252;2023-05-07T06:56:27;8.07;;;7.43;;
11338;SDS011;5724;42.684;23.252;2023-05-07T06:58:52;8.68;;;7.97;;
11338;SDS011;5724;42.684;23.252;2023-05-07T07:01:17;7.50;;;6.95;;
11338;SDS011;5724;42.684;23.252;2023-05-07T07:03:43;8.43;;;7.75;;
11338;SDS011;5724;42.684;23.252;2023-05-07T07:06:08;13.77;;;12.65;;
11338;SDS011;5724;42.684;23.252;2023-05-07T07:08:34;8.85;;;8.23;;
11338;SDS011;5724;42.684;23.252;2023-05-07T07:11:00;8.55;;;7.93;;
11338;SDS011;5724;42.684;23.252;2023-05-07T07:13:25;9.25;;;8.55;;
11338;SDS011;5724;42.684;23.252;2023-05-07T07:15:51;8.27;;;7.50;;
11338;SDS011;5724;42.684;23.252;2023-05-07T07:18:17;7.35;;;6.75;;
11338;SDS011;5724;42.684;23.252;2023-05-07T07:20:43;7.40;;;6.80;;
11338;SDS011;5724;42.684;23.252;2023-05-07T07:23:09;7.82;;;7.05;;
11338;SDS011;5724;42.684;23.252;2023-05-07T07:25:35;7.70;;;7.00;;
11338;SDS011;5724;42.684;23.252;2023-05-07T07:28:00;7.55;;;6.97;;
11338;SDS011;5724;42.684;23.252;2023-05-07T07:30:26;9.52;;;7.80;;
11338;SDS011;5724;42.684;23.252;2023-05-07T07:32:51;9.50;;;8.57;;
11338;SDS011;5724;42.684;23.252;2023-05-07T07:35:17;9.23;;;8.60;;
11338;SDS011;5724;42.684;23.252;2023-05-07T07:37:43;10.02;;;9.15;;
11338;SDS011;5724;42.684;23.252;2023-05-07T07:40:08;10.95;;;10.10;;
11338;SDS011;5724;42.684;23.252;2023-05-07T07:42:34;9.90;;;8.77;;
11338;SDS011;5724;42.684;23.252;2023-05-07T07:45:00;11.63;;;10.73;;
11338;SDS011;5724;42.684;23.252;2023-05-07T07:47:25;9.07;;;8.18;;
11338;SDS011;5724;42.684;23.252;2023-05-07T07:49:51;9.10;;;8.30;;
11338;SDS011;5724;42.684;23.252;2023-05-07T07:52:16;10.45;;;8.73;;
11338;SDS011;5724;42.684;23.252;2023-05-07T07:54:41;12.38;;;11.05;;
11338;SDS011;5724;42.684;23.252;2023-05-07T07:57:08;8.20;;;7.03;;
11338;SDS011;5724;42.684;23.252;2023-05-07T07:59:33;7.78;;;7.05;;
11338;SDS011;5724;42.684;23.252;2023-05-07T08:01:58;7.15;;;6.75;;
11338;SDS011;5724;42.684;23.252;2023-05-07T08:04:24;8.38;;;7.68;;
11338;SDS011;5724;42.684;23.252;2023-05-07T08:06:49;7.65;;;7.25;;
11338;SDS011;5724;42.684;23.252;2023-05-07T08:09:15;7.53;;;6.82;;
11338;SDS011;5724;42.684;23.252;2023-05-07T08:11:40;7.25;;;6.57;;
11338;SDS011;5724;42.684;23.252;2023-05-07T08:14:06;7.13;;;6.53;;
11338;SDS011;5724;42.684;23.252;2023-05-07T08:16:31;8.48;;;7.60;;
11338;SDS011;5724;42.684;23.252;2023-05-07T08:18:57;8.13;;;7.43;;
11338;SDS011;5724;42.684;23.252;2023-05-07T08:21:22;7.50;;;7.00;;
11338;SDS011;5724;42.684;23.252;2023-05-07T08:23:48;7.55;;;7.03;;
11338;SDS011;5724;42.684;23.252;2023-05-07T08:26:13;7.45;;;6.97;;
11338;SDS011;5724;42.684;23.252;2023-05-07T08:28:39;10.70;;;9.65;;
11338;SDS011;5724;42.684;23.252;2023-05-07T08:31:04;7.47;;;6.93;;
11338;SDS011;5724;42.684;23.252;2023-05-07T08:33:30;6.97;;;6.32;;
11338;SDS011;5724;42.684;23.252;2023-05-07T08:35:56;6.82;;;6.38;;
11338;SDS011;5724;42.684;23.252;2023-05-07T08:38:22;6.90;;;6.43;;
11338;SDS011;5724;42.684;23.252;2023-05-07T08:40:47;7.47;;;6.50;;
11338;SDS011;5724;42.684;23.252;2023-05-07T08:43:13;7.20;;;6.70;;
11338;SDS011;5724;42.684;23.252;2023-05-07T08:45:40;7.95;;;7.22;;
11338;SDS011;5724;42.684;23.252;2023-05-07T08:48:14;7.55;;;7.05;;
11338;SDS011;5724;42.684;23.252;2023-05-07T08:50:40;9.93;;;9.07;;
11338;SDS011;5724;42.684;23.252;2023-05-07T08:53:06;7.47;;;7.03;;
11338;SDS011;5724;42.684;23.252;2023-05-07T08:55:32;10.38;;;6.65;;
11338;SDS011;5724;42.684;23.252;2023-05-07T08:57:58;7.95;;;6.50;;
11338;SDS011;5724;42.684;23.252;2023-05-07T09:00:24;6.82;;;6.30;;
11338;SDS011;5724;42.684;23.252;2023-05-07T09:02:49;6.72;;;6.30;;
11338;SDS011;5724;42.684;23.252;2023-05-07T09:05:15;7.03;;;6.30;;
11338;SDS011;5724;42.684;23.252;2023-05-07T09:07:40;10.20;;;6.50;;
11338;SDS011;5724;42.684;23.252;2023-05-07T09:10:06;7.78;;;7.05;;
11338;SDS011;5724;42.684;23.252;2023-05-07T09:12:32;7.65;;;6.93;;
11338;SDS011;5724;42.684;23.252;2023-05-07T09:15:00;6.70;;;6.05;;
11338;SDS011;5724;42.684;23.252;2023-05-07T09:17:26;6.22;;;5.90;;
11338;SDS011;5724;42.684;23.252;2023-05-07T09:19:52;13.10;;;10.40;;
11338;SDS011;5724;42.684;23.252;2023-05-07T09:22:18;5.65;;;5.22;;
11338;SDS011;5724;42.684;23.252;2023-05-07T09:24:50;4.57;;;4.30;;
11338;SDS011;5724;42.684;23.252;2023-05-07T09:27:17;4.72;;;4.35;;
11338;SDS011;5724;42.684;23.252;2023-05-07T09:29:43;3.53;;;3.20;;
11338;SDS011;5724;42.684;23.252;2023-05-07T09:32:09;4.10;;;3.80;;
11338;SDS011;5724;42.684;23.252;2023-05-07T09:34:35;5.95;;;5.45;;
11338;SDS011;5724;42.684;23.252;2023-05-07T09:37:04;6.40;;;5.38;;
11338;SDS011;5724;42.684;23.252;2023-05-07T09:39:40;5.28;;;4.85;;
11338;SDS011;5724;42.684;23.252;2023-05-07T09:42:10;6.10;;;4.30;;
11338;SDS011;5724;42.684;23.252;2023-05-07T09:44:36;5.30;;;4.82;;
11338;SDS011;5724;42.684;23.252;2023-05-07T09:47:04;4.72;;;4.20;;
11338;SDS011;5724;42.684;23.252;2023-05-07T09:49:30;4.18;;;3.92;;
11338;SDS011;5724;42.684;23.252;2023-05-07T09:52:00;4.72;;;4.30;;
11338;SDS011;5724;42.684;23.252;2023-05-07T09:54:27;3.60;;;3.40;;
11338;SDS011;5724;42.684;23.252;2023-05-07T09:56:56;3.95;;;3.70;;
11338;SDS011;5724;42.684;23.252;2023-05-07T09:59:23;3.53;;;3.30;;
11338;SDS011;5724;42.684;23.252;2023-05-07T10:01:50;4.35;;;4.05;;
11338;SDS011;5724;42.684;23.252;2023-05-07T10:04:17;7.82;;;7.28;;
11338;SDS011;5724;42.684;23.252;2023-05-07T10:06:43;4.90;;;4.60;;
11338;SDS011;5724;42.684;23.252;2023-05-07T10:09:09;3.80;;;3.35;;
11338;SDS011;5724;42.684;23.252;2023-05-07T10:11:36;3.60;;;3.30;;
11338;SDS011;5724;42.684;23.252;2023-05-07T10:14:02;3.38;;;3.17;;
11338;SDS011;5724;42.684;23.252;2023-05-07T10:16:31;3.97;;;3.72;;
11338;SDS011;5724;42.684;23.252;2023-05-07T10:19:02;5.15;;;3.40;;
11338;SDS011;5724;42.684;23.252;2023-05-07T10:21:28;3.28;;;3.08;;
11338;SDS011;5724;42.684;23.252;2023-05-07T10:24:00;3.75;;;3.33;;
11338;SDS011;5724;42.684;23.252;2023-05-07T10:26:32;3.53;;;3.33;;
11338;SDS011;5724;42.684;23.252;2023-05-07T10:29:01;3.10;;;2.90;;
11338;SDS011;5724;42.684;23.252;2023-05-07T10:34:21;3.35;;;3.10;;
11338;SDS011;5724;42.684;23.252;2023-05-07T10:36:50;3.15;;;2.80;;
11338;SDS011;5724;42.684;23.252;2023-05-07T10:39:17;2.95;;;2.70;;
11338;SDS011;5724;42.684;23.252;2023-05-07T10:41:45;2.95;;;2.65;;
11338;SDS011;5724;42.684;23.252;2023-05-07T10:44:10;3.28;;;2.35;;
11338;SDS011;5724;42.684;23.252;2023-05-07T10:46:36;2.40;;;2.30;;
11338;SDS011;5724;42.684;23.252;2023-05-07T10:51:33;3.47;;;3.28;;
11338;SDS011;5724;42.684;23.252;2023-05-07T10:56:37;3.45;;;3.20;;
11338;SDS011;5724;42.684;23.252;2023-05-07T11:04:24;3.35;;;3.05;;
11338;SDS011;5724;42.684;23.252;2023-05-07T11:15:05;2.80;;;2.60;;
11338;SDS011;5724;42.684;23.252;2023-05-07T11:17:34;3.10;;;2.90;;
11338;SDS011;5724;42.684;23.252;2023-05-07T11:20:17;2.85;;;2.65;;
11338;SDS011;5724;42.684;23.252;2023-05-07T11:22:43;2.92;;;2.78;;
11338;SDS011;5724;42.684;23.252;2023-05-07T11:25:09;3.15;;;2.90;;
11338;SDS011;5724;42.684;23.252;2023-05-07T11:27:35;3.67;;;3.10;;
11338;SDS011;5724;42.684;23.252;2023-05-07T11:30:00;3.28;;;3.08;;
11338;SDS011;5724;42.684;23.252;2023-05-07T11:32:26;3.13;;;3.03;;
11338;SDS011;5724;42.684;23.252;2023-05-07T11:34:53;5.00;;;2.70;;
11338;SDS011;5724;42.684;23.252;2023-05-07T11:37:20;3.00;;;2.80;;
11338;SDS011;5724;42.684;23.252;2023-05-07T11:39:47;3.08;;;2.90;;
11338;SDS011;5724;42.684;23.252;2023-05-07T11:42:35;3.35;;;3.15;;
11338;SDS011;5724;42.684;23.252;2023-05-07T11:45:06;2.88;;;2.78;;
11338;SDS011;5724;42.684;23.252;2023-05-07T11:47:32;2.80;;;2.70;;
11338;SDS011;5724;42.684;23.252;2023-05-07T11:50:02;2.90;;;2.80;;
11338;SDS011;5724;42.684;23.252;2023-05-07T11:52:36;3.58;;;2.83;;
11338;SDS011;5724;42.684;23.252;2023-05-07T11:55:04;3.10;;;2.80;;
11338;SDS011;5724;42.684;23.252;2023-05-07T11:57:29;3.10;;;2.90;;
11338;SDS011;5724;42.684;23.252;2023-05-07T11:59:56;3.00;;;2.90;;
11338;SDS011;5724;42.684;23.252;2023-05-07T12:02:22;3.00;;;2.88;;
11338;SDS011;5724;42.684;23.252;2023-05-07T12:04:49;3.22;;;2.83;;
11338;SDS011;5724;42.684;23.252;2023-05-07T12:07:18;3.97;;;2.97;;
11338;SDS011;5724;42.684;23.252;2023-05-07T12:09:44;4.03;;;2.70;;
11338;SDS011;5724;42.684;23.252;2023-05-07T12:12:10;6.85;;;6.43;;
11338;SDS011;5724;42.684;23.252;2023-05-07T12:14:39;3.25;;;3.10;;
11338;SDS011;5724;42.684;23.252;2023-05-07T12:17:09;2.90;;;2.80;;
11338;SDS011;5724;42.684;23.252;2023-05-07T12:19:36;3.13;;;2.67;;
11338;SDS011;5724;42.684;23.252;2023-05-07T12:22:03;3.05;;;2.70;;
11338;SDS011;5724;42.684;23.252;2023-05-07T12:24:42;2.70;;;2.60;;
11338;SDS011;5724;42.684;23.252;2023-05-07T12:27:12;2.75;;;2.65;;
11338;SDS011;5724;42.684;23.252;2023-05-07T12:29:39;2.65;;;2.50;;
11338;SDS011;5724;42.684;23.252;2023-05-07T12:32:06;3.80;;;3.50;;
11338;SDS011;5724;42.684;23.252;2023-05-07T12:34:32;2.35;;;2.25;;
11338;SDS011;5724;42.684;23.252;2023-05-07T12:36:57;2.10;;;2.08;;
11338;SDS011;5724;42.684;23.252;2023-05-07T12:39:28;2.55;;;2.22;;
11338;SDS011;5724;42.684;23.252;2023-05-07T12:41:54;2.53;;;2.33;;
11338;SDS011;5724;42.684;23.252;2023-05-07T12:44:24;2.60;;;2.40;;
11338;SDS011;5724;42.684;23.252;2023-05-07T12:46:51;2.72;;;2.60;;
11338;SDS011;5724;42.684;23.252;2023-05-07T12:49:16;3.63;;;3.33;;
11338;SDS011;5724;42.684;23.252;2023-05-07T12:51:43;2.47;;;2.38;;
11338;SDS011;5724;42.684;23.252;2023-05-07T12:54:09;2.70;;;2.50;;
11338;SDS011;5724;42.684;23.252;2023-05-07T12:56:37;3.03;;;2.58;;
11338;SDS011;5724;42.684;23.252;2023-05-07T12:59:03;3.38;;;2.88;;
11338;SDS011;5724;42.684;23.252;2023-05-07T13:01:33;2.80;;;2.60;;
11338;SDS011;5724;42.684;23.252;2023-05-07T13:04:02;2.53;;;2.42;;
11338;SDS011;5724;42.684;23.252;2023-05-07T13:06:29;2.70;;;2.60;;
11338;SDS011;5724;42.684;23.252;2023-05-07T13:08:56;2.72;;;2.42;;
11338;SDS011;5724;42.684;23.252;2023-05-07T13:11:21;2.40;;;2.30;;
11338;SDS011;5724;42.684;23.252;2023-05-07T13:13:47;2.63;;;2.42;;
11338;SDS011;5724;42.684;23.252;2023-05-07T13:16:14;2.75;;;2.55;;
11338;SDS011;5724;42.684;23.252;2023-05-07T13:18:40;2.42;;;2.33;;
11338;SDS011;5724;42.684;23.252;2023-05-07T13:21:05;2.67;;;2.58;;
11338;SDS011;5724;42.684;23.252;2023-05-07T13:23:31;3.25;;;2.25;;
11338;SDS011;5724;42.684;23.252;2023-05-07T13:25:57;2.42;;;2.33;;
11338;SDS011;5724;42.684;23.252;2023-05-07T13:28:22;2.38;;;2.28;;
11338;SDS011;5724;42.684;23.252;2023-05-07T13:30:48;2.67;;;2.47;;
11338;SDS011;5724;42.684;23.252;2023-05-07T13:33:14;2.83;;;2.72;;
11338;SDS011;5724;42.684;23.252;2023-05-07T13:35:41;2.55;;;2.45;;
11338;SDS011;5724;42.684;23.252;2023-05-07T13:38:06;2.30;;;2.20;;
11338;SDS011;5724;42.684;23.252;2023-05-07T13:40:32;2.65;;;2.45;;
11338;SDS011;5724;42.684;23.252;2023-05-07T13:42:59;2.28;;;2.10;;
11338;SDS011;5724;42.684;23.252;2023-05-07T13:45:27;2.42;;;2.25;;
11338;SDS011;5724;42.684;23.252;2023-05-07T13:47:55;2.55;;;2.42;;
11338;SDS011;5724;42.684;23.252;2023-05-07T13:50:21;2.78;;;2.53;;
11338;SDS011;5724;42.684;23.252;2023-05-07T13:52:47;2.40;;;2.20;;
11338;SDS011;5724;42.684;23.252;2023-05-07T13:55:19;2.95;;;2.72;;
11338;SDS011;5724;42.684;23.252;2023-05-07T13:57:54;3.28;;;2.97;;
11338;SDS011;5724;42.684;23.252;2023-05-07T14:00:26;3.28;;;2.70;;
11338;SDS011;5724;42.684;23.252;2023-05-07T14:02:53;2.88;;;2.78;;
11338;SDS011;5724;42.684;23.252;2023-05-07T14:05:20;3.00;;;2.90;;
11338;SDS011;5724;42.684;23.252;2023-05-07T14:07:48;2.58;;;2.38;;
11338;SDS011;5724;42.684;23.252;2023-05-07T14:10:16;2.83;;;2.72;;
11338;SDS011;5724;42.684;23.252;2023-05-07T14:12:42;2.55;;;2.45;;
11338;SDS011;5724;42.684;23.252;2023-05-07T14:15:08;2.40;;;2.30;;
11338;SDS011;5724;42.684;23.252;2023-05-07T14:17:34;2.38;;;2.28;;
11338;SDS011;5724;42.684;23.252;2023-05-07T14:20:00;3.30;;;3.10;;
11338;SDS011;5724;42.684;23.252;2023-05-07T14:22:25;3.88;;;3.58;;
11338;SDS011;5724;42.684;23.252;2023-05-07T14:24:51;4.13;;;3.75;;
11338;SDS011;5724;42.684;23.252;2023-05-07T14:27:16;3.90;;;3.70;;
11338;SDS011;5724;42.684;23.252;2023-05-07T14:29:42;4.35;;;4.05;;
11338;SDS011;5724;42.684;23.252;2023-05-07T14:32:08;4.35;;;3.97;;
11338;SDS011;5724;42.684;23.252;2023-05-07T14:34:34;2.60;;;2.40;;
11338;SDS011;5724;42.684;23.252;2023-05-07T14:37:00;5.68;;;4.88;;
11338;SDS011;5724;42.684;23.252;2023-05-07T14:39:26;2.63;;;2.45;;
11338;SDS011;5724;42.684;23.252;2023-05-07T14:41:52;2.90;;;2.42;;
11338;SDS011;5724;42.684;23.252;2023-05-07T14:44:19;2.40;;;2.30;;
11338;SDS011;5724;42.684;23.252;2023-05-07T14:46:45;2.47;;;2.38;;
11338;SDS011;5724;42.684;23.252;2023-05-07T14:49:11;2.60;;;2.40;;
11338;SDS011;5724;42.684;23.252;2023-05-07T14:51:42;2.00;;;2.00;;
11338;SDS011;5724;42.684;23.252;2023-05-07T14:54:08;3.60;;;2.60;;
11338;SDS011;5724;42.684;23.252;2023-05-07T14:56:34;3.00;;;2.80;;
11338;SDS011;5724;42.684;23.252;2023-05-07T14:59:00;2.90;;;2.60;;